Terminal Aerodrome Forecast
Issued by NWS

Home | Current Version | Previous Version | Text Only | Print | Product List | Glossary On
Versions: 1 2 3 4 5 6 7 8 9 10 11 12 13 14 15
003
FTUS45 KFGZ 260821 AAA
TAFGCN
TAF AMD
KGCN 260821Z 2608/2706 VRB05KT P6SM FEW200
      TEMPO 2608/2612 2SM FU
     FM261800 05008KT P6SM SCT200
     FM270100 VRB03KT P6SM BKN200=

USA.gov is the U.S. government's official web portal to all federal, state and local government web resources and services.